Relevés horaires Beauvechain (Belgique)


Relevés horaires à Beauvechain - Lundi 09 Juill. 2018
Heure UTC1 Température [°C] Vent [km/h] Hum. [%] Pres.4 [hPa] Visi. [Km] Nébu. [octa] Préc.5 [mm] Cond.
2m. Res. Ros. Dir.2 Vit. Moy. Raf.3
23:00 16.2 16.2 12.0 NNO 7.4 -- 16.7 76 1022.2(0.1/3h) 20 -- -- --
22:00 17.9 17.9 14.4 N 11.1 -- 14.8 80 1022.1(0.2/3h) 19 -- -- --
21:00 19.1 19.1 14.5 NNO 7.4 -- 14.8 75 1022.2(0.4/3h) 20 -- -- --
20:00 20.3 20.3 13.9 N 9.3 -- 14.8 67 1021.8(-0.1/3h) 20 -- -- --
19:00 21.6 21.6 12.9 N 7.4 -- 13.0 58 1021.7(-0.5/3h) 20 -- -- --
18:00 22.6 22.6 13.2 N 9.3 -- 13.0 55 1021.7(-0.8/3h) 20 -- -- --
17:00 22.8 22.8 12.8 N 7.4 -- 13.0 53 1021.8(-1.0/3h) 20 -- -- --
16:00 22.8 22.8 12.9 N 9.3 -- 13.0 54 1022.2(-1.1/3h) 20 7/8 -- --
15:00 23.5 23.5 12.2 N 7.4 -- 13.0 49 1022.5(-1.1/3h) 20 7/8 -- --
14:00 23.3 23.3 11.9 NNO 7.4 -- 13.0 49 1023(-1.1/3h) 20 7/8 -- --
13:00 23.6 23.6 11.8 N 7.4 -- 13.0 48 1023.3(-0.9/3h) 20 7/8 -- --
12:00 22.5 22.5 11.2 N 7.4 -- 11.1 49 1023.7(-0.9/3h) 20 6/8 -- --
11:00 21.8 21.8 10.9 N 7.4 -- 11.1 50 1024.2(-0.8/3h) 20 6/8 -- --
10:00 21.8 21.8 11.8 NNE 3.7 -- 9.3 53 1024.4(-0.5/3h) 20 5/8 -- --
09:00 20.3 20.3 12.2 NE 3.7 -- 9.3 60 1024.7(-0.1/3h) 20 2/8 -- --
08:00 18.7 18.7 12.8 NNE 5.6 -- 9.3 69 1025.2(0.2/3h) 20 2/8 -- --
07:00 17.4 17.4 12.8 NNE 5.6 -- 7.4 74 1025(0.1/3h) 15 5/8 -- --
06:00 17.2 17.2 12.5 N 3.7 -- 7.4 74 1025.2(0.2/3h) 15 5/8 -- --
05:00 14.5 14.5 11.2 NNO 3.7 -- 5.6 81 1025.2(0.2/3h) 15 6/8 -- --
04:00 13.0 13.0 10.1 NNO 1.9 -- 1.9 83 1025.2(-0.1/3h) 15 4/8 -- --
03:00 13.8 13.8 9.8 NNO 1.9 -- 7.4 77 1025(0.0/3h) 20 -- -- --
02:00 14.0 14.0 10.1 N 3.7 -- 7.4 77 1025(0.0/3h) 20 -- -- --
01:00 15.1 15.1 10.1 N 3.7 -- 7.4 72 1025.2(0.1/3h) 20 -- -- --
00:00 16.1 16.1 10.2 NNO 1.9 -- 14.8 68 1024.9(0.0/3h) 20 -- -- --

1 Coordinated Universal Time. Actuellement il est 02:00 locale et 01:00 UTC.

2 Le vent souffle depuis la direction indiquée vers la direction oposée.

3 Les rafales max. sont disponible 40 min après l'heure du relevé.

4 Pour les stations d'altitude (plus de 600m) le géopotentiel du niveau le plus proche de la pression obligatoire est indiqué.

5 Les stations disposant d'un diffuseur peuvent indiquer "trace". Cela signifie que des précipitations ont touchés le sol mais que la quantité est inférieure à 0.1 mm.

Récapitulatif de la journée
Température [°C] Vent [km/h] Ensoleillement4 [h] Precipitations totale5 [mm] Pression [Hpa]
Min1 Max.2 Moy.3 Max. Min Max.
13.0 24.8 0 16.7 0 h 0 min 0 1021.7 1025.2

1 Température minimale relevée entre 18:00 UTC la veille et 18:00 UTC le jour donné.

2 Température maximale relevée entre 06:00 UTC le jour donné et 06:00 UTC le lendemain.

3 Vent moyen de la journée basé sur les relevés horaires.

4 Ensoleillement en heures relevé entre 06:00 UTC la veille et 06:00 UTC le jour donné.

5 Précipitations totales tombées entre 06:00 UTC la jour donné et 06:00 UTC le lendemain.

Graphiques horaires